Time;durP1;ratioP1;P1;durP2;ratioP2;P2;SDS_P1;SDS_P2;PMS_P1;PMS_P2;Temp;Humidity;BMP_temperature;BMP_pressure;BME280_temperature;BME280_humidity;BME280_pressure;Samples;Min_cycle;Max_cycle;Signal;HPM_P1;HPM_P2
2022/12/24 00:00:23;;;;;;;3.43;3.10;;;;;;;;;;5121169;28;20614;-63
2022/12/24 00:02:51;;;;;;;5.00;2.90;;;;;;;;;;5121165;28;20233;-62
2022/12/24 00:05:19;;;;;;;3.00;2.70;;;;;;;;;;5121281;28;20209;-62
2022/12/24 00:07:48;;;;;;;4.53;2.57;;;;;;;;;;5121186;28;20215;-62
2022/12/24 00:10:17;;;;;;;2.67;2.17;;;;;;;;;;5121318;27;20246;-62
2022/12/24 00:12:45;;;;;;;2.27;1.90;;;;;;;;;;5120920;28;20247;-62
2022/12/24 00:15:13;;;;;;;2.43;1.87;;;;;;;;;;5118755;28;20288;-62
2022/12/24 00:17:41;;;;;;;2.53;2.10;;;;;;;;;;5119596;28;20570;-64
2022/12/24 00:20:10;;;;;;;2.97;2.10;;;;;;;;;;5120823;28;20225;-63
2022/12/24 00:22:38;;;;;;;2.30;2.10;;;;;;;;;;5120910;28;20311;-64
2022/12/24 00:25:08;;;;;;;2.50;1.90;;;;;;;;;;5120746;28;20668;-63
2022/12/24 00:27:36;;;;;;;1.87;1.73;;;;;;;;;;5120971;28;20216;-63
2022/12/24 00:30:04;;;;;;;3.47;2.10;;;;;;;;;;5120796;28;20731;-63
2022/12/24 00:32:32;;;;;;;2.83;2.07;;;;;;;;;;5120626;28;20687;-62
2022/12/24 00:35:00;;;;;;;3.23;2.53;;;;;;;;;;5120560;28;20243;-64
2022/12/24 00:37:28;;;;;;;3.20;2.40;;;;;;;;;;5119454;28;20237;-62
2022/12/24 00:39:56;;;;;;;5.03;2.50;;;;;;;;;;5120757;28;20211;-62
2022/12/24 00:42:25;;;;;;;3.23;2.50;;;;;;;;;;5120630;27;20243;-63
2022/12/24 00:44:53;;;;;;;2.77;2.47;;;;;;;;;;5120487;28;20204;-62
2022/12/24 00:47:21;;;;;;;4.00;2.53;;;;;;;;;;5117527;28;20229;-64
2022/12/24 00:49:49;;;;;;;2.33;2.13;;;;;;;;;;5119389;28;20284;-62
2022/12/24 00:52:18;;;;;;;2.90;2.43;;;;;;;;;;5120192;28;20205;-64
2022/12/24 00:54:45;;;;;;;3.03;2.37;;;;;;;;;;5120512;28;20212;-63
2022/12/24 00:57:13;;;;;;;4.03;2.53;;;;;;;;;;5120379;28;20201;-62
2022/12/24 00:59:43;;;;;;;3.13;2.83;;;;;;;;;;5120677;28;20236;-62
2022/12/24 01:02:11;;;;;;;3.63;2.30;;;;;;;;;;5120014;28;20260;-62
2022/12/24 01:07:25;;;;;;;2.77;2.57;;;;;;;;;;5119780;28;20205;-62
2022/12/24 01:09:53;;;;;;;3.40;2.70;;;;;;;;;;5119950;28;20236;-63
2022/12/24 01:12:21;;;;;;;3.93;2.53;;;;;;;;;;5119865;28;20564;-64
2022/12/24 01:14:50;;;;;;;3.03;2.50;;;;;;;;;;5119735;28;20200;-63
2022/12/24 01:17:18;;;;;;;3.50;2.97;;;;;;;;;;5118200;28;20216;-64
2022/12/24 01:19:46;;;;;;;3.53;2.70;;;;;;;;;;5118472;28;20232;-62
2022/12/24 01:22:14;;;;;;;4.80;2.83;;;;;;;;;;5119550;28;20229;-63
2022/12/24 01:24:44;;;;;;;3.43;2.60;;;;;;;;;;5119805;27;20211;-64
2022/12/24 01:27:12;;;;;;;4.70;2.77;;;;;;;;;;5119627;28;20323;-62
2022/12/24 01:29:40;;;;;;;4.40;2.50;;;;;;;;;;5108445;28;20205;-63
2022/12/24 01:32:09;;;;;;;4.70;2.83;;;;;;;;;;5119548;27;20682;-62
2022/12/24 01:34:37;;;;;;;4.93;2.97;;;;;;;;;;5117826;28;20231;-63
2022/12/24 01:37:05;;;;;;;2.93;2.47;;;;;;;;;;5106008;28;20197;-62
2022/12/24 01:39:33;;;;;;;3.53;2.90;;;;;;;;;;5119312;28;20691;-62
2022/12/24 01:44:48;;;;;;;2.90;2.33;;;;;;;;;;5119392;28;20232;-62
2022/12/24 01:47:19;;;;;;;3.90;2.97;;;;;;;;;;5117524;28;20205;-62
2022/12/24 01:49:51;;;;;;;5.70;3.13;;;;;;;;;;5119056;28;20237;-62
2022/12/24 01:52:21;;;;;;;4.33;2.83;;;;;;;;;;5118841;28;20232;-62
2022/12/24 01:54:50;;;;;;;6.03;3.67;;;;;;;;;;5119298;28;20204;-62
2022/12/24 01:57:21;;;;;;;3.97;3.43;;;;;;;;;;5118952;28;20662;-62
2022/12/24 01:59:51;;;;;;;4.40;3.43;;;;;;;;;;5119011;28;20289;-62
2022/12/24 02:02:21;;;;;;;5.73;3.27;;;;;;;;;;5119014;28;20228;-62
2022/12/24 02:04:51;;;;;;;5.37;3.50;;;;;;;;;;5118862;28;20333;-62
2022/12/24 02:07:19;;;;;;;5.43;3.40;;;;;;;;;;5118600;28;20631;-63
2022/12/24 02:09:48;;;;;;;4.97;3.90;;;;;;;;;;5118840;28;20670;-63
2022/12/24 02:12:16;;;;;;;3.83;3.30;;;;;;;;;;5118668;28;20565;-63
2022/12/24 02:14:45;;;;;;;5.33;3.90;;;;;;;;;;5118947;28;20236;-63
2022/12/24 02:17:17;;;;;;;4.30;3.37;;;;;;;;;;5117667;28;20568;-63
2022/12/24 02:20:01;;;;;;;4.53;3.87;;;;;;;;;;5118315;28;20232;-63
2022/12/24 02:22:35;;;;;;;4.67;3.50;;;;;;;;;;5118397;28;20254;-62
2022/12/24 02:25:11;;;;;;;5.27;3.90;;;;;;;;;;5118534;28;20669;-62
2022/12/24 02:27:45;;;;;;;4.60;3.50;;;;;;;;;;5116910;28;20204;-62
2022/12/24 02:30:17;;;;;;;4.00;3.33;;;;;;;;;;5114915;28;20331;-63
2022/12/24 02:32:51;;;;;;;5.67;3.63;;;;;;;;;;5118612;28;20247;-63
2022/12/24 02:35:20;;;;;;;5.23;3.60;;;;;;;;;;5118307;28;20308;-63
2022/12/24 02:37:52;;;;;;;5.27;3.70;;;;;;;;;;5115199;28;20211;-63
2022/12/24 02:40:22;;;;;;;5.20;3.80;;;;;;;;;;5118312;28;20567;-63
2022/12/24 02:42:54;;;;;;;7.00;4.03;;;;;;;;;;5118115;28;20228;-63
2022/12/24 02:45:27;;;;;;;4.63;3.40;;;;;;;;;;5118343;28;20219;-62
2022/12/24 02:47:55;;;;;;;4.47;3.60;;;;;;;;;;5118507;28;20208;-63
2022/12/24 02:50:23;;;;;;;5.20;3.53;;;;;;;;;;5118437;28;20209;-62
2022/12/24 02:52:52;;;;;;;5.63;3.63;;;;;;;;;;5117905;28;20231;-64
2022/12/24 02:55:22;;;;;;;3.33;2.97;;;;;;;;;;5117870;28;20628;-63
2022/12/24 02:58:05;;;;;;;3.47;2.80;;;;;;;;;;5114129;28;20564;-62
2022/12/24 03:00:36;;;;;;;5.93;3.30;;;;;;;;;;5115497;28;20232;-63
2022/12/24 03:03:16;;;;;;;3.23;2.80;;;;;;;;;;5122195;28;20236;-63
2022/12/24 03:05:46;;;;;;;4.27;3.13;;;;;;;;;;5122023;28;20543;-63
2022/12/24 03:08:16;;;;;;;2.53;2.33;;;;;;;;;;5122316;28;20204;-62
2022/12/24 03:10:47;;;;;;;3.00;2.70;;;;;;;;;;5122383;28;20211;-64
2022/12/24 03:13:16;;;;;;;3.47;2.50;;;;;;;;;;5121841;28;20212;-63
2022/12/24 03:15:46;;;;;;;4.40;3.13;;;;;;;;;;5122268;28;20201;-63
2022/12/24 03:18:16;;;;;;;3.23;2.47;;;;;;;;;;5117691;28;20297;-63
2022/12/24 03:20:45;;;;;;;2.83;2.53;;;;;;;;;;5122086;28;20231;-64
2022/12/24 03:23:13;;;;;;;3.83;2.70;;;;;;;;;;5121711;28;20229;-63
2022/12/24 03:25:43;;;;;;;3.13;2.83;;;;;;;;;;5121994;28;20251;-63
2022/12/24 03:28:12;;;;;;;4.00;2.70;;;;;;;;;;5121003;28;20200;-63
2022/12/24 03:30:40;;;;;;;3.10;2.80;;;;;;;;;;5122059;28;20244;-63
2022/12/24 03:33:10;;;;;;;3.93;3.00;;;;;;;;;;5121936;28;20227;-63
2022/12/24 03:35:38;;;;;;;5.53;3.17;;;;;;;;;;5119453;28;20296;-63
2022/12/24 03:38:06;;;;;;;3.63;2.67;;;;;;;;;;5112896;28;20543;-63
2022/12/24 03:40:34;;;;;;;4.97;3.57;;;;;;;;;;5121975;28;20216;-63
2022/12/24 03:43:02;;;;;;;4.03;3.00;;;;;;;;;;5121731;28;20311;-63
2022/12/24 03:45:30;;;;;;;5.20;2.93;;;;;;;;;;5121841;28;20215;-63
2022/12/24 03:47:58;;;;;;;3.97;2.93;;;;;;;;;;5121516;28;20208;-63
2022/12/24 03:50:28;;;;;;;3.90;3.17;;;;;;;;;;5121647;28;20204;-63
2022/12/24 03:52:56;;;;;;;4.70;3.20;;;;;;;;;;5121190;28;20221;-63
2022/12/24 03:55:24;;;;;;;5.00;3.27;;;;;;;;;;5121433;28;20571;-63
2022/12/24 03:57:52;;;;;;;3.50;3.07;;;;;;;;;;5120680;28;20196;-63
2022/12/24 04:00:20;;;;;;;5.17;3.73;;;;;;;;;;5121488;28;20208;-64
2022/12/24 04:02:48;;;;;;;4.43;3.40;;;;;;;;;;5121312;28;20320;-62
2022/12/24 04:05:17;;;;;;;5.23;3.40;;;;;;;;;;5121060;28;20211;-63
2022/12/24 04:07:47;;;;;;;4.90;3.57;;;;;;;;;;5120954;28;20634;-64
2022/12/24 04:10:16;;;;;;;4.30;3.37;;;;;;;;;;5121378;28;20243;-64
2022/12/24 04:12:44;;;;;;;6.20;3.43;;;;;;;;;;5120915;28;20221;-64
2022/12/24 04:15:12;;;;;;;4.67;3.20;;;;;;;;;;5120988;27;20201;-63
2022/12/24 04:17:40;;;;;;;6.53;3.77;;;;;;;;;;5120981;28;20667;-64
2022/12/24 04:20:08;;;;;;;3.87;3.40;;;;;;;;;;5120761;27;20209;-64
2022/12/24 04:22:36;;;;;;;5.60;3.73;;;;;;;;;;5120710;28;20235;-63
2022/12/24 04:25:06;;;;;;;5.03;3.67;;;;;;;;;;5120757;28;20208;-64
2022/12/24 04:27:34;;;;;;;5.17;3.60;;;;;;;;;;5119766;28;20231;-63
2022/12/24 04:30:03;;;;;;;5.43;3.50;;;;;;;;;;5118820;28;20201;-64
2022/12/24 04:32:31;;;;;;;6.07;3.80;;;;;;;;;;5120679;28;20197;-63
2022/12/24 04:34:59;;;;;;;5.87;3.30;;;;;;;;;;5120742;28;20205;-62
2022/12/24 04:37:27;;;;;;;4.53;3.70;;;;;;;;;;5120544;28;20291;-63
2022/12/24 04:39:55;;;;;;;8.40;4.37;;;;;;;;;;5120622;28;20204;-63
2022/12/24 04:42:24;;;;;;;6.90;4.00;;;;;;;;;;5119574;28;20217;-64
2022/12/24 04:44:52;;;;;;;5.83;3.80;;;;;;;;;;5120775;28;20291;-64
2022/12/24 04:47:20;;;;;;;4.60;3.67;;;;;;;;;;5120638;28;20291;-64
2022/12/24 04:49:49;;;;;;;6.97;4.10;;;;;;;;;;5120283;27;20216;-64
2022/12/24 04:52:17;;;;;;;4.30;3.90;;;;;;;;;;5120221;28;20208;-64
2022/12/24 04:54:45;;;;;;;9.10;4.47;;;;;;;;;;5120354;28;20671;-64
2022/12/24 04:57:13;;;;;;;6.30;4.50;;;;;;;;;;5120132;27;20686;-64
2022/12/24 04:59:42;;;;;;;5.57;4.67;;;;;;;;;;5119401;28;20545;-64
2022/12/24 05:02:10;;;;;;;7.03;4.77;;;;;;;;;;5120060;28;20670;-64
2022/12/24 05:04:39;;;;;;;8.53;5.07;;;;;;;;;;5120211;28;20205;-64
2022/12/24 05:07:07;;;;;;;5.03;4.17;;;;;;;;;;5119085;28;20204;-64
2022/12/24 05:09:35;;;;;;;5.50;4.63;;;;;;;;;;5120007;27;20201;-64
2022/12/24 05:12:04;;;;;;;8.17;5.87;;;;;;;;;;5119871;27;20693;-64
2022/12/24 05:14:32;;;;;;;8.07;5.03;;;;;;;;;;5119797;28;20589;-64
2022/12/24 05:17:02;;;;;;;9.27;5.23;;;;;;;;;;5122898;27;20205;-64
2022/12/24 05:19:30;;;;;;;10.87;4.50;;;;;;;;;;5114684;28;20246;-64
2022/12/24 05:27:30;;;;;;;7.67;5.10;;;;;;;;;;5115420;28;20209;-64
2022/12/24 05:29:58;;;;;;;9.70;5.33;;;;;;;;;;5108517;28;20202;-64
2022/12/24 05:32:27;;;;;;;9.40;5.90;;;;;;;;;;5108886;28;20208;-64
2022/12/24 05:34:55;;;;;;;8.33;5.70;;;;;;;;;;5108540;28;20204;-64
2022/12/24 05:37:23;;;;;;;7.43;5.57;;;;;;;;;;5114856;28;20205;-64
2022/12/24 05:39:51;;;;;;;8.37;6.20;;;;;;;;;;5112504;28;20236;-63
2022/12/24 05:42:19;;;;;;;7.83;5.67;;;;;;;;;;5116328;28;20725;-64
2022/12/24 05:44:47;;;;;;;10.60;5.90;;;;;;;;;;5117699;28;20231;-64
2022/12/24 05:47:15;;;;;;;7.97;6.10;;;;;;;;;;5106210;28;20204;-64
2022/12/24 05:49:45;;;;;;;7.57;5.83;;;;;;;;;;5114565;28;20201;-64
2022/12/24 05:52:13;;;;;;;8.07;5.70;;;;;;;;;;5118610;28;20201;-62
2022/12/24 05:54:41;;;;;;;6.23;5.30;;;;;;;;;;5119554;28;20287;-62
2022/12/24 05:57:08;;;;;;;6.00;4.77;;;;;;;;;;5118957;28;20228;-63
2022/12/24 05:59:36;;;;;;;5.93;4.83;;;;;;;;;;5118943;28;20240;-62
2022/12/24 06:02:05;;;;;;;6.33;5.07;;;;;;;;;;5118891;28;20659;-64
2022/12/24 06:04:33;;;;;;;5.60;4.77;;;;;;;;;;5118728;28;20288;-63
2022/12/24 06:07:02;;;;;;;8.20;4.30;;;;;;;;;;5118538;28;20209;-64
2022/12/24 06:09:30;;;;;;;8.00;5.23;;;;;;;;;;5118913;28;20243;-65
2022/12/24 06:11:58;;;;;;;6.73;4.37;;;;;;;;;;5118970;28;20212;-64
2022/12/24 06:14:26;;;;;;;6.57;4.97;;;;;;;;;;5118649;28;20220;-64
2022/12/24 06:16:54;;;;;;;5.23;4.37;;;;;;;;;;5118866;28;20208;-64
2022/12/24 06:19:23;;;;;;;8.47;5.03;;;;;;;;;;5118404;28;20236;-64
2022/12/24 06:21:51;;;;;;;5.33;4.67;;;;;;;;;;5118227;28;20295;-64
2022/12/24 06:24:21;;;;;;;6.20;4.80;;;;;;;;;;5115236;28;20216;-64
2022/12/24 06:26:49;;;;;;;5.80;5.07;;;;;;;;;;5111211;28;20570;-64
2022/12/24 06:29:17;;;;;;;8.23;5.47;;;;;;;;;;5118471;28;20236;-63
2022/12/24 06:31:45;;;;;;;5.90;4.53;;;;;;;;;;5118630;28;20236;-63
2022/12/24 06:34:13;;;;;;;5.90;5.30;;;;;;;;;;5118469;28;20312;-63
2022/12/24 06:36:41;;;;;;;7.77;5.70;;;;;;;;;;5110655;28;20197;-63
2022/12/24 06:39:09;;;;;;;7.63;6.07;;;;;;;;;;5118680;28;20208;-64
2022/12/24 06:41:38;;;;;;;9.50;6.00;;;;;;;;;;5118237;28;20690;-64
2022/12/24 06:44:06;;;;;;;9.90;6.43;;;;;;;;;;5112566;28;20221;-64
2022/12/24 06:46:34;;;;;;;11.77;7.03;;;;;;;;;;5114392;28;20664;-63
2022/12/24 06:49:02;;;;;;;8.37;6.00;;;;;;;;;;5117629;28;20232;-64
2022/12/24 06:51:30;;;;;;;8.77;6.13;;;;;;;;;;5110066;28;20219;-63
2022/12/24 06:53:58;;;;;;;10.60;6.17;;;;;;;;;;5116998;28;20563;-63
2022/12/24 06:56:26;;;;;;;9.37;6.30;;;;;;;;;;5118215;28;20663;-65
2022/12/24 06:58:56;;;;;;;7.50;5.50;;;;;;;;;;5118142;28;20204;-64
2022/12/24 07:01:31;;;;;;;8.53;5.20;;;;;;;;;;5118380;28;20214;-65
2022/12/24 07:04:00;;;;;;;7.37;5.97;;;;;;;;;;5115997;28;20232;-64
2022/12/24 07:06:29;;;;;;;7.17;6.40;;;;;;;;;;5117174;28;20212;-65
2022/12/24 07:08:57;;;;;;;6.67;5.13;;;;;;;;;;5117729;28;20947;-64
2022/12/24 07:11:25;;;;;;;10.03;6.17;;;;;;;;;;5118328;28;20209;-65
2022/12/24 07:13:53;;;;;;;6.23;5.23;;;;;;;;;;5116955;28;20275;-65
2022/12/24 07:16:22;;;;;;;6.10;4.73;;;;;;;;;;5118142;28;20209;-65
2022/12/24 07:18:51;;;;;;;7.97;5.27;;;;;;;;;;5117846;28;20703;-65
2022/12/24 07:21:19;;;;;;;8.43;5.63;;;;;;;;;;5112282;28;20211;-65
2022/12/24 07:23:47;;;;;;;8.77;5.87;;;;;;;;;;5117451;28;20261;-66
2022/12/24 07:26:15;;;;;;;7.93;5.93;;;;;;;;;;5118116;28;20236;-65
2022/12/24 07:28:43;;;;;;;7.23;5.70;;;;;;;;;;5116043;28;20228;-65
2022/12/24 07:31:11;;;;;;;8.63;5.67;;;;;;;;;;5116687;28;20232;-64
2022/12/24 07:33:40;;;;;;;6.23;5.63;;;;;;;;;;5128411;28;20303;-65
2022/12/24 07:36:10;;;;;;;7.70;5.37;;;;;;;;;;5117389;28;20197;-65
2022/12/24 07:38:38;;;;;;;7.83;5.40;;;;;;;;;;5117668;28;20209;-66
2022/12/24 07:41:06;;;;;;;7.30;6.00;;;;;;;;;;5107675;28;20201;-66
2022/12/24 07:43:34;;;;;;;9.10;5.97;;;;;;;;;;5115303;28;20294;-66
2022/12/24 07:46:02;;;;;;;6.97;5.40;;;;;;;;;;5117602;28;20200;-65
2022/12/24 07:48:31;;;;;;;6.40;5.17;;;;;;;;;;5120840;28;20236;-66
2022/12/24 07:51:00;;;;;;;7.20;5.50;;;;;;;;;;5121284;27;20252;-65
2022/12/24 07:53:29;;;;;;;5.67;4.90;;;;;;;;;;5120897;28;20256;-66
2022/12/24 07:55:57;;;;;;;6.00;4.90;;;;;;;;;;5118025;28;20268;-65
2022/12/24 07:58:25;;;;;;;7.67;4.80;;;;;;;;;;5120992;28;20197;-66
2022/12/24 08:00:57;;;;;;;7.10;5.00;;;;;;;;;;5119466;27;20233;-66
2022/12/24 08:03:25;;;;;;;5.30;4.43;;;;;;;;;;5120906;28;20739;-66
2022/12/24 08:05:53;;;;;;;7.40;4.57;;;;;;;;;;5116465;28;20221;-66
2022/12/24 08:08:23;;;;;;;6.23;4.50;;;;;;;;;;5124285;27;20268;-65
2022/12/24 08:10:51;;;;;;;7.37;5.37;;;;;;;;;;5125952;27;20658;-66
2022/12/24 08:13:19;;;;;;;6.53;4.53;;;;;;;;;;5121130;28;20229;-66
2022/12/24 08:15:47;;;;;;;5.57;4.23;;;;;;;;;;5121034;28;20201;-65
2022/12/24 08:18:16;;;;;;;6.27;4.90;;;;;;;;;;5118476;28;20228;-66
2022/12/24 08:20:44;;;;;;;6.20;4.77;;;;;;;;;;5120134;28;20292;-66
2022/12/24 08:23:12;;;;;;;6.93;4.57;;;;;;;;;;5120754;28;20224;-66
2022/12/24 08:25:43;;;;;;;7.70;5.07;;;;;;;;;;5106960;28;20225;-68
2022/12/24 08:28:12;;;;;;;4.67;4.13;;;;;;;;;;5119594;28;20209;-69
2022/12/24 08:30:40;;;;;;;7.33;4.90;;;;;;;;;;5120355;28;20209;-67
2022/12/24 08:33:08;;;;;;;9.73;4.43;;;;;;;;;;5112507;28;20814;-68
2022/12/24 08:35:36;;;;;;;5.87;4.63;;;;;;;;;;5118677;28;20264;-67
2022/12/24 08:38:04;;;;;;;6.77;4.30;;;;;;;;;;5119389;28;20205;-67
2022/12/24 08:40:32;;;;;;;7.63;4.47;;;;;;;;;;5120354;28;20572;-67
2022/12/24 08:43:02;;;;;;;6.20;4.73;;;;;;;;;;5120586;28;20225;-67
2022/12/24 08:45:31;;;;;;;8.27;4.67;;;;;;;;;;5120246;28;20425;-68
2022/12/24 08:48:07;;;;;;;4.43;3.90;;;;;;;;;;5120428;28;20283;-67
2022/12/24 08:50:35;;;;;;;4.17;3.77;;;;;;;;;;5120424;28;20219;-68
2022/12/24 08:53:03;;;;;;;4.17;3.30;;;;;;;;;;5120294;28;20229;-67
2022/12/24 08:55:31;;;;;;;4.40;3.33;;;;;;;;;;5119804;28;20231;-67
2022/12/24 08:57:59;;;;;;;4.33;3.40;;;;;;;;;;5117879;28;20636;-67
2022/12/24 09:00:28;;;;;;;3.90;3.27;;;;;;;;;;5117846;28;20300;-67
2022/12/24 09:02:57;;;;;;;4.20;3.63;;;;;;;;;;5111786;28;20221;-67
2022/12/24 09:05:25;;;;;;;4.90;4.40;;;;;;;;;;5117268;28;20217;-68
2022/12/24 09:07:53;;;;;;;5.80;4.38;;;;;;;;;;5117183;28;20439;-67
2022/12/24 09:10:22;;;;;;;521.60;343.90;;;;;;;;;;5118406;28;20240;-68
2022/12/24 09:12:50;;;;;;;27.33;17.67;;;;;;;;;;5120087;28;20228;-67
2022/12/24 09:15:19;;;;;;;6.97;5.17;;;;;;;;;;5119778;28;20607;-67
2022/12/24 09:17:48;;;;;;;6.67;5.70;;;;;;;;;;5119987;27;20209;-68
2022/12/24 09:20:16;;;;;;;5.70;4.43;;;;;;;;;;5119630;28;20653;-68
2022/12/24 09:22:44;;;;;;;4.10;3.30;;;;;;;;;;5119653;28;20240;-67
2022/12/24 09:25:12;;;;;;;4.90;3.57;;;;;;;;;;5119777;28;20256;-66
2022/12/24 09:27:40;;;;;;;5.10;4.10;;;;;;;;;;5114614;27;20254;-67
2022/12/24 09:30:09;;;;;;;5.37;4.27;;;;;;;;;;5113844;28;20659;-67
2022/12/24 09:32:37;;;;;;;4.93;3.30;;;;;;;;;;5119601;28;20312;-66
2022/12/24 09:35:07;;;;;;;6.93;4.33;;;;;;;;;;5118287;28;20277;-67
2022/12/24 09:37:35;;;;;;;4.80;3.73;;;;;;;;;;5115685;28;20207;-67
2022/12/24 09:40:04;;;;;;;3.90;3.50;;;;;;;;;;5119328;28;20213;-67
2022/12/24 09:42:38;;;;;;;3.37;3.07;;;;;;;;;;5114999;28;20205;-67
2022/12/24 09:45:29;;;;;;;4.17;3.77;;;;;;;;;;5076311;28;20233;-65
2022/12/24 09:48:02;;;;;;;4.87;4.27;;;;;;;;;;5063211;28;20728;-66
2022/12/24 09:50:34;;;;;;;6.33;4.33;;;;;;;;;;5076261;28;20689;-66
2022/12/24 09:53:04;;;;;;;4.63;4.23;;;;;;;;;;5076156;28;20384;-67
2022/12/24 09:55:33;;;;;;;4.93;4.27;;;;;;;;;;5076309;28;20293;-67
2022/12/24 09:58:02;;;;;;;3.97;3.50;;;;;;;;;;5076343;28;20249;-66
2022/12/24 10:00:32;;;;;;;7.13;3.97;;;;;;;;;;5066427;28;20206;-67
2022/12/24 10:03:00;;;;;;;4.23;3.40;;;;;;;;;;5074546;28;20226;-67
2022/12/24 10:05:33;;;;;;;5.07;3.27;;;;;;;;;;5074187;28;20225;-66
2022/12/24 10:08:08;;;;;;;5.37;3.27;;;;;;;;;;5074833;28;20198;-66
2022/12/24 10:10:38;;;;;;;5.30;3.47;;;;;;;;;;5072581;28;20677;-68
2022/12/24 10:13:13;;;;;;;7.27;3.90;;;;;;;;;;5075132;28;20328;-68
2022/12/24 10:15:47;;;;;;;4.20;3.67;;;;;;;;;;5075840;28;20282;-67
2022/12/24 10:18:22;;;;;;;6.07;3.87;;;;;;;;;;5075566;28;20272;-67
2022/12/24 10:20:54;;;;;;;3.47;3.03;;;;;;;;;;5074873;28;20237;-65
2022/12/24 10:23:26;;;;;;;6.63;3.10;;;;;;;;;;5105746;28;20221;-66
2022/12/24 10:26:00;;;;;;;5.73;3.20;;;;;;;;;;5118792;28;20307;-66
2022/12/24 10:28:31;;;;;;;3.53;2.90;;;;;;;;;;5118607;28;20629;-66
2022/12/24 10:31:03;;;;;;;3.57;2.63;;;;;;;;;;5117527;28;20227;-67
2022/12/24 10:33:32;;;;;;;4.13;2.43;;;;;;;;;;5118648;28;20220;-66
2022/12/24 10:36:00;;;;;;;4.63;2.83;;;;;;;;;;5118343;28;20209;-66
2022/12/24 10:38:38;;;;;;;4.57;2.77;;;;;;;;;;5118506;28;20211;-67
2022/12/24 10:41:06;;;;;;;2.93;2.53;;;;;;;;;;5117310;28;20205;-67
2022/12/24 10:43:35;;;;;;;3.23;2.93;;;;;;;;;;5118239;28;20229;-67
2022/12/24 10:46:06;;;;;;;4.00;3.00;;;;;;;;;;5118205;28;20232;-68
2022/12/24 10:48:38;;;;;;;2.63;2.27;;;;;;;;;;5118621;28;20257;-67
2022/12/24 10:51:15;;;;;;;5.00;2.50;;;;;;;;;;5118101;28;20660;-67
2022/12/24 10:53:46;;;;;;;4.67;2.73;;;;;;;;;;5116315;28;20293;-67
2022/12/24 10:56:16;;;;;;;2.57;2.13;;;;;;;;;;5116359;28;20279;-67
2022/12/24 10:58:45;;;;;;;3.13;2.50;;;;;;;;;;5117618;28;20205;-67
2022/12/24 11:01:13;;;;;;;3.47;2.50;;;;;;;;;;5118453;28;20208;-67
2022/12/24 11:03:42;;;;;;;4.30;2.70;;;;;;;;;;5117779;28;20238;-67
2022/12/24 11:06:11;;;;;;;3.97;2.73;;;;;;;;;;5117827;28;20630;-67
2022/12/24 11:08:40;;;;;;;3.63;3.17;;;;;;;;;;5118081;28;20208;-67
2022/12/24 11:11:12;;;;;;;3.53;2.83;;;;;;;;;;5118133;28;20204;-67
2022/12/24 11:13:40;;;;;;;4.13;3.00;;;;;;;;;;5117977;28;20595;-67
2022/12/24 11:16:15;;;;;;;4.03;2.97;;;;;;;;;;5118113;28;20568;-67
2022/12/24 11:18:45;;;;;;;3.67;3.37;;;;;;;;;;5118043;28;20232;-67
2022/12/24 11:21:23;;;;;;;5.60;3.50;;;;;;;;;;5111983;28;20293;-67
2022/12/24 11:23:55;;;;;;;4.00;3.60;;;;;;;;;;5122236;27;20225;-67
2022/12/24 11:26:26;;;;;;;8.13;4.00;;;;;;;;;;5121942;28;20224;-67
2022/12/24 11:29:04;;;;;;;6.67;3.70;;;;;;;;;;5122310;28;20212;-67
2022/12/24 11:31:36;;;;;;;4.43;3.90;;;;;;;;;;5122241;28;20208;-67
2022/12/24 11:34:17;;;;;;;5.17;3.97;;;;;;;;;;5121862;28;20665;-67
2022/12/24 11:36:45;;;;;;;5.67;3.70;;;;;;;;;;5121613;28;20624;-66
2022/12/24 11:39:18;;;;;;;6.20;3.80;;;;;;;;;;5121727;28;20235;-66
2022/12/24 11:41:49;;;;;;;6.50;3.73;;;;;;;;;;5121663;28;20647;-67
2022/12/24 11:44:23;;;;;;;4.90;3.90;;;;;;;;;;5121470;28;20224;-67
2022/12/24 11:46:55;;;;;;;4.33;3.40;;;;;;;;;;5121683;28;20225;-65
2022/12/24 11:49:24;;;;;;;4.13;3.47;;;;;;;;;;5121471;28;20211;-67
2022/12/24 11:52:02;;;;;;;4.73;4.00;;;;;;;;;;5121622;28;20209;-67
2022/12/24 11:54:32;;;;;;;4.17;3.50;;;;;;;;;;5121454;28;20283;-67
2022/12/24 11:57:01;;;;;;;9.30;3.70;;;;;;;;;;5121754;27;20296;-67
2022/12/24 11:59:31;;;;;;;5.60;3.63;;;;;;;;;;5121403;28;20233;-67
2022/12/24 12:02:02;;;;;;;4.90;3.63;;;;;;;;;;5121344;28;20217;-67
2022/12/24 12:04:31;;;;;;;4.83;3.93;;;;;;;;;;5121385;28;20225;-67
2022/12/24 12:07:01;;;;;;;4.43;3.67;;;;;;;;;;5121403;28;20291;-67
2022/12/24 12:09:31;;;;;;;5.87;3.77;;;;;;;;;;5121212;28;20211;-67
2022/12/24 12:12:02;;;;;;;4.37;3.87;;;;;;;;;;5121098;28;20245;-67
2022/12/24 12:14:32;;;;;;;5.00;4.33;;;;;;;;;;5121071;28;20225;-67
2022/12/24 12:17:06;;;;;;;5.33;4.60;;;;;;;;;;5121202;28;20197;-67
2022/12/24 12:19:38;;;;;;;8.10;5.23;;;;;;;;;;5120751;28;20232;-67
2022/12/24 12:22:11;;;;;;;7.77;5.33;;;;;;;;;;5107993;28;20204;-67
2022/12/24 12:24:44;;;;;;;8.10;6.50;;;;;;;;;;5121035;28;20288;-67
2022/12/24 12:27:18;;;;;;;7.57;6.13;;;;;;;;;;5120848;28;20224;-67
2022/12/24 12:29:51;;;;;;;8.07;6.80;;;;;;;;;;5120855;28;20231;-67
2022/12/24 12:32:24;;;;;;;8.20;7.23;;;;;;;;;;5121067;28;20292;-67
2022/12/24 12:34:58;;;;;;;12.63;7.87;;;;;;;;;;5119322;28;20664;-67
2022/12/24 12:37:29;;;;;;;9.80;7.60;;;;;;;;;;5120393;28;20610;-67
2022/12/24 12:39:57;;;;;;;9.03;7.87;;;;;;;;;;5120762;28;20652;-67
2022/12/24 12:42:29;;;;;;;9.33;8.00;;;;;;;;;;5120418;28;20193;-67
2022/12/24 12:45:03;;;;;;;9.93;7.90;;;;;;;;;;5120528;28;20680;-67
2022/12/24 12:47:53;;;;;;;8.87;7.40;;;;;;;;;;5120650;28;20235;-67
2022/12/24 12:50:25;;;;;;;12.97;8.27;;;;;;;;;;5120339;28;20569;-67
2022/12/24 12:53:04;;;;;;;10.90;8.30;;;;;;;;;;5120085;28;20228;-67
2022/12/24 12:55:36;;;;;;;8.43;7.20;;;;;;;;;;5120501;28;20213;-67
2022/12/24 12:58:10;;;;;;;10.60;7.33;;;;;;;;;;5120449;28;20197;-67
2022/12/24 13:00:40;;;;;;;9.63;8.07;;;;;;;;;;5120469;28;21108;-67
2022/12/24 13:03:28;;;;;;;9.23;7.97;;;;;;;;;;5120162;28;20680;-67
2022/12/24 13:06:06;;;;;;;9.57;7.47;;;;;;;;;;5120088;28;20209;-67
2022/12/24 13:08:49;;;;;;;9.57;7.20;;;;;;;;;;5120060;28;20311;-67
2022/12/24 13:11:31;;;;;;;9.83;7.30;;;;;;;;;;5119285;28;20209;-67
2022/12/24 13:14:20;;;;;;;10.27;7.93;;;;;;;;;;5120021;28;20284;-67
2022/12/24 13:17:00;;;;;;;10.57;8.00;;;;;;;;;;5117977;27;20243;-67
2022/12/24 13:19:40;;;;;;;9.10;8.17;;;;;;;;;;5119649;28;20275;-67
2022/12/24 13:22:16;;;;;;;10.60;8.40;;;;;;;;;;5107039;28;20204;-67
2022/12/24 13:24:48;;;;;;;10.30;7.97;;;;;;;;;;5119708;28;20291;-67
2022/12/24 13:27:24;;;;;;;10.57;7.90;;;;;;;;;;5119697;28;20263;-67
2022/12/24 13:29:55;;;;;;;10.17;8.43;;;;;;;;;;5119961;28;20211;-67
2022/12/24 13:32:43;;;;;;;9.73;7.87;;;;;;;;;;5119811;28;20244;-67
2022/12/24 13:35:29;;;;;;;10.43;8.93;;;;;;;;;;5119753;28;20205;-67
2022/12/24 13:38:23;;;;;;;10.53;7.90;;;;;;;;;;5119556;28;20201;-67
2022/12/24 13:40:51;;;;;;;10.23;7.30;;;;;;;;;;5119408;28;20743;-67
2022/12/24 13:43:18;;;;;;;9.93;7.37;;;;;;;;;;5119660;28;20225;-67
2022/12/24 13:45:48;;;;;;;7.93;6.67;;;;;;;;;;5119252;28;20211;-67
2022/12/24 13:48:30;;;;;;;10.07;7.70;;;;;;;;;;5119308;28;20710;-67
2022/12/24 13:51:00;;;;;;;9.43;7.50;;;;;;;;;;5119356;28;20219;-67
2022/12/24 13:53:31;;;;;;;10.60;7.57;;;;;;;;;;5119157;28;20220;-67
2022/12/24 13:56:02;;;;;;;11.60;8.23;;;;;;;;;;5119359;28;20212;-67
2022/12/24 13:58:30;;;;;;;8.70;7.50;;;;;;;;;;5119462;28;20212;-67
2022/12/24 14:01:00;;;;;;;12.33;8.37;;;;;;;;;;5119116;28;20209;-67
2022/12/24 14:03:30;;;;;;;10.63;7.97;;;;;;;;;;5119035;28;20327;-67
2022/12/24 14:06:01;;;;;;;12.20;8.00;;;;;;;;;;5118820;27;20277;-67
2022/12/24 14:08:32;;;;;;;10.10;7.83;;;;;;;;;;5118851;28;20235;-67
2022/12/24 14:11:03;;;;;;;9.63;8.33;;;;;;;;;;5119109;28;20208;-67
2022/12/24 14:13:54;;;;;;;13.90;8.63;;;;;;;;;;5118651;28;20224;-67
2022/12/24 14:16:23;;;;;;;356.00;57.00;;;;;;;;;;5118978;28;20201;-67
2022/12/24 14:18:58;;;;;;;107.30;23.70;;;;;;;;;;5118591;28;20262;-67
2022/12/24 14:21:29;;;;;;;12.80;8.67;;;;;;;;;;5118586;28;20258;-67
2022/12/24 14:23:58;;;;;;;9.87;7.50;;;;;;;;;;5118501;28;20225;-67
2022/12/24 14:26:30;;;;;;;10.83;7.60;;;;;;;;;;5118606;28;20208;-67
2022/12/24 14:29:00;;;;;;;9.30;7.63;;;;;;;;;;5118852;28;20252;-67
2022/12/24 14:31:28;;;;;;;9.57;7.67;;;;;;;;;;5118498;28;20239;-67
2022/12/24 14:34:05;;;;;;;10.53;8.13;;;;;;;;;;5118707;28;20235;-67
2022/12/24 14:36:35;;;;;;;13.77;7.90;;;;;;;;;;5118284;28;20221;-67
2022/12/24 14:39:05;;;;;;;8.23;7.43;;;;;;;;;;5118465;28;20670;-67
2022/12/24 14:41:39;;;;;;;9.27;6.90;;;;;;;;;;5118709;28;20296;-67
2022/12/24 14:44:10;;;;;;;7.90;7.10;;;;;;;;;;5118491;28;20235;-67
2022/12/24 14:46:41;;;;;;;12.17;7.37;;;;;;;;;;5118582;28;20243;-67
2022/12/24 14:49:13;;;;;;;8.77;7.33;;;;;;;;;;5118128;28;20224;-67
2022/12/24 14:51:47;;;;;;;9.60;7.47;;;;;;;;;;5118363;28;20208;-67
2022/12/24 14:54:33;;;;;;;10.40;7.50;;;;;;;;;;5118352;28;20229;-67
2022/12/24 14:57:12;;;;;;;10.07;7.63;;;;;;;;;;5117422;28;20745;-67
2022/12/24 14:59:42;;;;;;;16.53;7.77;;;;;;;;;;5118248;28;20562;-66
2022/12/24 15:02:22;;;;;;;9.57;7.60;;;;;;;;;;5118158;28;20672;-67
2022/12/24 15:05:02;;;;;;;7.73;6.77;;;;;;;;;;5118280;28;20209;-67
2022/12/24 15:07:33;;;;;;;8.37;7.50;;;;;;;;;;5118124;28;20220;-67
2022/12/24 15:10:01;;;;;;;8.83;7.57;;;;;;;;;;5118375;28;20291;-68